createdAt,value
2019-04-25T00:03:48.000Z,998.577
2019-04-25T00:23:48.000Z,998.229
2019-04-25T00:33:48.000Z,998.565
2019-04-25T00:43:48.000Z,998.671
2019-04-25T00:53:48.000Z,998.782
2019-04-25T01:03:48.000Z,998.791
2019-04-25T01:13:48.000Z,998.648
2019-04-25T01:23:48.000Z,998.385
2019-04-25T01:33:48.000Z,998.134
2019-04-25T01:43:48.000Z,998.203
2019-04-25T01:53:50.000Z,998.351
2019-04-25T02:03:48.000Z,998.575
2019-04-25T02:13:52.000Z,998.913
2019-04-25T02:33:48.000Z,999.303
2019-04-25T02:53:48.000Z,999.038
2019-04-25T03:03:48.000Z,998.921
2019-04-25T03:13:48.000Z,998.974
2019-04-25T03:23:48.000Z,998.935
2019-04-25T03:33:48.000Z,998.992
2019-04-25T03:43:49.000Z,999.121
2019-04-25T03:53:48.000Z,999.183
2019-04-25T04:03:48.000Z,999.173
2019-04-25T04:23:48.000Z,999.218
2019-04-25T04:33:48.000Z,999.285
2019-04-25T04:43:48.000Z,999.347
2019-04-25T04:53:48.000Z,999.342
2019-04-25T05:03:48.000Z,999.32
2019-04-25T05:13:49.000Z,999.484
2019-04-25T05:23:48.000Z,999.437
2019-04-25T05:33:48.000Z,999.387
2019-04-25T05:43:48.000Z,999.572
2019-04-25T06:03:49.000Z,999.809
2019-04-25T06:13:48.000Z,999.937
2019-04-25T06:23:48.000Z,999.955
2019-04-25T06:33:48.000Z,999.708
2019-04-25T06:43:48.000Z,999.99
2019-04-25T06:53:49.000Z,1000.028
2019-04-25T07:03:49.000Z,1000.117
2019-04-25T07:13:49.000Z,1000.046
2019-04-25T07:23:49.000Z,1000.063
2019-04-25T07:33:52.000Z,1000.054
2019-04-25T07:43:49.000Z,999.939
2019-04-25T07:53:49.000Z,1000.232
2019-04-25T08:03:49.000Z,1000.456
2019-04-25T08:23:49.000Z,1000.389
2019-04-25T08:33:49.000Z,1000.324
2019-04-25T08:43:49.000Z,1000.664
2019-04-25T08:53:49.000Z,1000.566
2019-04-25T09:03:49.000Z,1000.596
2019-04-25T09:13:49.000Z,1000.694
2019-04-25T09:33:52.000Z,1000.882
2019-04-25T09:43:51.000Z,1000.868
2019-04-25T09:53:50.000Z,1000.869
2019-04-25T10:03:51.000Z,1000.784
2019-04-25T10:13:49.000Z,1000.756
2019-04-25T10:23:49.000Z,1000.791
2019-04-25T10:53:49.000Z,1000.782
2019-04-25T11:03:49.000Z,1000.595
2019-04-25T11:13:49.000Z,1000.409
2019-04-25T11:23:49.000Z,1000.317
2019-04-25T11:33:49.000Z,1000.114
2019-04-25T11:43:49.000Z,1000.099
2019-04-25T11:53:49.000Z,1000.023
2019-04-25T12:03:49.000Z,1000.03
2019-04-25T12:13:49.000Z,999.97
2019-04-25T12:23:49.000Z,1000.015
2019-04-25T12:33:49.000Z,1000.064
2019-04-25T12:43:49.000Z,1000.16
2019-04-25T12:53:49.000Z,999.799
2019-04-25T13:03:49.000Z,999.542
2019-04-25T13:13:49.000Z,999.497
2019-04-25T13:23:49.000Z,999.421
2019-04-25T13:33:49.000Z,999.44
2019-04-25T13:43:49.000Z,999.448
2019-04-25T13:53:49.000Z,999.314
2019-04-25T14:03:49.000Z,999.203
2019-04-25T14:13:50.000Z,999.143
2019-04-25T14:23:49.000Z,998.975
2019-04-25T14:33:49.000Z,998.945
2019-04-25T14:43:49.000Z,998.87
2019-04-25T14:53:49.000Z,998.892
2019-04-25T15:03:49.000Z,998.848
2019-04-25T15:13:50.000Z,998.763
2019-04-25T15:23:50.000Z,998.854
2019-04-25T15:33:50.000Z,998.797
2019-04-25T15:43:50.000Z,998.787
2019-04-25T15:53:50.000Z,998.67
2019-04-25T16:03:50.000Z,998.72
2019-04-25T16:13:50.000Z,998.694
2019-04-25T16:23:53.000Z,998.717
2019-04-25T16:33:50.000Z,998.649
2019-04-25T16:43:50.000Z,998.66
2019-04-25T16:53:50.000Z,998.639
2019-04-25T17:03:50.000Z,998.478
2019-04-25T17:13:50.000Z,998.394
2019-04-25T17:23:50.000Z,998.401
2019-04-25T17:33:50.000Z,998.446
2019-04-25T17:43:50.000Z,998.384
2019-04-25T17:53:50.000Z,998.556
2019-04-25T18:03:50.000Z,998.706
2019-04-25T18:13:50.000Z,998.782
2019-04-25T18:23:52.000Z,999.242
2019-04-25T18:33:50.000Z,999.392
2019-04-25T18:43:50.000Z,999.464
2019-04-25T18:53:53.000Z,999.566
2019-04-25T19:03:51.000Z,999.73
2019-04-25T19:13:53.000Z,999.987
2019-04-25T19:23:50.000Z,1000.17
2019-04-25T19:33:53.000Z,1000.534
2019-04-25T19:43:50.000Z,1000.662
2019-04-25T19:53:53.000Z,1000.977
2019-04-25T20:03:50.000Z,1001.207
2019-04-25T20:13:50.000Z,1001.165
2019-04-25T20:23:50.000Z,1001.158
2019-04-25T20:33:50.000Z,1001.281
2019-04-25T20:43:50.000Z,1001.391
2019-04-25T21:03:50.000Z,1001.439
2019-04-25T21:23:51.000Z,1001.306
2019-04-25T21:33:50.000Z,1001.327
2019-04-25T21:43:50.000Z,1001.621
2019-04-25T21:53:50.000Z,1001.702
2019-04-25T22:03:50.000Z,1001.685
2019-04-25T22:13:50.000Z,1001.736
2019-04-25T22:23:50.000Z,1001.672
2019-04-25T22:33:50.000Z,1001.682
2019-04-25T22:43:50.000Z,1001.727
2019-04-25T22:53:50.000Z,1001.944
2019-04-25T23:03:50.000Z,1002.021
2019-04-25T23:13:50.000Z,1001.955
2019-04-25T23:23:52.000Z,1001.957
2019-04-25T23:33:51.000Z,1002.108
2019-04-25T23:43:51.000Z,1002.115
2019-04-25T23:53:51.000Z,1001.975
